Cassel, California
Current Conditions -  °F | °C
As of 8:56 AM on Friday 24 Oct 2014 (Local Time) from KMHS Reporting Station
Overcast Overcast  
Wind Chill: 50°   Ceiling: 2600
Heat Index: 50°   Visibility: 10mi
Dew Point: 47°   Wind: 0mph
Humidity: 89%   Direction: NA
Pressure: 30.01"   Gusts: NA
Location:  40.92°N, 121.55°W
Report Text: KMHS 241556Z AUTO 00000KT 10SM BKN026 OVC032 10/08 A3001 RMK AO2 SLP175 T01000083
Loading
Personal Weather Stations






























Interactive Weather Map
Tropical Storm Tracking
New forecast layout! Learn more

10-Day Weather Forecast

Advertisements
Track Severe Weather on mobile